createdAt,value
2017-11-16T00:00:51.482Z,80.90
2017-11-16T00:03:24.156Z,81.00
2017-11-16T00:05:57.590Z,80.80
2017-11-16T00:08:30.268Z,80.90
2017-11-16T00:11:02.714Z,81.30
2017-11-16T00:13:35.492Z,81.80
2017-11-16T00:16:07.993Z,81.70
2017-11-16T00:18:40.836Z,82.00
2017-11-16T00:21:14.254Z,82.00
2017-11-16T00:23:46.631Z,82.10
2017-11-16T00:26:19.993Z,82.40
2017-11-16T00:28:52.539Z,82.70
2017-11-16T00:31:25.085Z,82.30
2017-11-16T00:33:57.594Z,82.20
2017-11-16T00:36:30.915Z,82.20
2017-11-16T00:39:03.898Z,81.80
2017-11-16T00:41:37.881Z,82.10
2017-11-16T00:44:11.713Z,81.90
2017-11-16T00:46:44.491Z,82.10
2017-11-16T00:49:17.695Z,81.40
2017-11-16T00:51:50.395Z,81.40
2017-11-16T00:54:23.018Z,81.30
2017-11-16T00:56:56.434Z,81.60
2017-11-16T00:59:28.782Z,81.30
2017-11-16T01:02:02.019Z,81.40
2017-11-16T01:04:34.609Z,81.30
2017-11-16T01:07:07.948Z,81.40
2017-11-16T01:09:40.461Z,81.40
2017-11-16T01:12:12.980Z,81.60
2017-11-16T01:14:45.399Z,81.60
2017-11-16T01:17:17.882Z,81.70
2017-11-16T01:19:51.160Z,81.60
2017-11-16T01:22:23.690Z,81.00
2017-11-16T01:24:57.062Z,81.00
2017-11-16T01:27:29.639Z,81.40
2017-11-16T01:30:03.027Z,81.70
2017-11-16T01:32:36.362Z,81.90
2017-11-16T01:35:08.895Z,82.10
2017-11-16T01:37:42.047Z,81.80
2017-11-16T01:40:14.825Z,81.70
2017-11-16T01:42:47.259Z,81.60
2017-11-16T01:45:19.742Z,80.90
2017-11-16T01:47:52.710Z,80.40
2017-11-16T01:50:26.188Z,80.60
2017-11-16T01:52:59.705Z,80.20
2017-11-16T01:55:32.588Z,80.30
2017-11-16T01:58:05.126Z,80.40
2017-11-16T02:00:38.351Z,80.30
2017-11-16T02:03:11.905Z,80.20
2017-11-16T02:05:44.613Z,80.20
2017-11-16T02:08:18.004Z,80.60
2017-11-16T02:10:51.355Z,80.60
2017-11-16T02:13:24.133Z,80.70
2017-11-16T02:15:56.591Z,80.20
2017-11-16T02:18:29.089Z,80.40
2017-11-16T02:21:01.764Z,80.40
2017-11-16T02:23:35.102Z,80.80
2017-11-16T02:26:07.642Z,80.90
2017-11-16T02:28:41.030Z,80.00
2017-11-16T02:31:14.219Z,80.00
2017-11-16T02:33:47.616Z,80.50
2017-11-16T02:36:20.263Z,80.40
2017-11-16T02:38:52.780Z,80.50
2017-11-16T02:41:25.702Z,80.50
2017-11-16T02:43:58.951Z,80.70
2017-11-16T02:46:31.916Z,80.60
2017-11-16T02:49:05.268Z,80.30
2017-11-16T02:51:38.117Z,80.80
2017-11-16T02:54:10.565Z,80.20
2017-11-16T02:56:43.848Z,80.10
2017-11-16T02:59:16.596Z,80.20
2017-11-16T03:01:49.132Z,80.30
2017-11-16T03:04:21.824Z,80.30
2017-11-16T03:06:54.361Z,80.20
2017-11-16T03:09:27.149Z,80.10
2017-11-16T03:11:59.722Z,80.70
2017-11-16T03:14:32.234Z,80.60
2017-11-16T03:17:05.377Z,80.00
2017-11-16T03:19:38.249Z,80.20
2017-11-16T03:22:10.667Z,80.30
2017-11-16T03:24:43.120Z,80.60
2017-11-16T03:27:15.559Z,80.70
2017-11-16T03:29:48.168Z,80.90
2017-11-16T03:32:20.590Z,80.70
2017-11-16T03:34:52.999Z,80.50
2017-11-16T03:37:26.419Z,80.50
2017-11-16T03:39:58.983Z,80.50
2017-11-16T03:42:33.282Z,81.20
2017-11-16T03:45:05.677Z,80.60
2017-11-16T03:47:39.255Z,81.20
2017-11-16T03:50:12.650Z,81.00
2017-11-16T03:52:45.486Z,80.90
2017-11-16T03:55:18.014Z,81.30
2017-11-16T03:57:50.669Z,81.20
2017-11-16T04:00:24.070Z,81.40
2017-11-16T04:02:56.442Z,81.40
2017-11-16T04:05:28.917Z,81.60
2017-11-16T04:08:02.412Z,81.00
2017-11-16T04:10:34.931Z,81.10
2017-11-16T04:13:07.616Z,81.00
2017-11-16T04:15:40.430Z,81.60
2017-11-16T04:18:14.521Z,80.90
2017-11-16T04:20:47.508Z,81.00
2017-11-16T04:23:20.744Z,80.70
2017-11-16T04:25:53.554Z,80.70
2017-11-16T04:28:26.038Z,80.70
2017-11-16T04:30:59.399Z,80.80
2017-11-16T04:33:32.055Z,80.50
2017-11-16T04:36:04.618Z,80.60
2017-11-16T04:38:37.977Z,80.70
2017-11-16T04:41:11.257Z,80.70
2017-11-16T04:43:44.691Z,80.30
2017-11-16T04:46:17.221Z,80.40
2017-11-16T04:48:49.749Z,80.50
2017-11-16T04:51:22.181Z,80.40
2017-11-16T04:53:55.632Z,80.40
2017-11-16T04:56:28.809Z,80.40
2017-11-16T04:59:01.712Z,80.30
2017-11-16T05:01:34.182Z,80.40
2017-11-16T05:04:07.784Z,80.30
2017-11-16T05:06:40.491Z,80.30
2017-11-16T05:09:13.013Z,80.50
2017-11-16T05:11:45.641Z,80.50
2017-11-16T05:14:18.204Z,80.70
2017-11-16T05:16:51.034Z,80.30
2017-11-16T05:19:23.777Z,80.40
2017-11-16T05:21:56.538Z,80.50
2017-11-16T05:24:29.309Z,80.30
2017-11-16T05:27:02.618Z,80.30
2017-11-16T05:29:35.619Z,80.30
2017-11-16T05:32:08.105Z,79.70
2017-11-16T05:34:41.665Z,79.50
2017-11-16T05:37:14.192Z,79.70
2017-11-16T05:39:46.660Z,79.50
2017-11-16T05:42:20.221Z,81.70
2017-11-16T05:44:53.336Z,81.20
2017-11-16T05:47:26.630Z,80.90
2017-11-16T05:49:59.169Z,80.60
2017-11-16T05:52:32.644Z,80.10
2017-11-16T05:55:06.756Z,82.30
2017-11-16T05:57:39.536Z,81.70
2017-11-16T06:00:13.732Z,78.90
2017-11-16T06:02:46.393Z,78.90
2017-11-16T06:05:19.863Z,78.40
2017-11-16T06:07:52.316Z,78.20
2017-11-16T06:10:24.761Z,78.40
2017-11-16T06:12:57.350Z,78.30
2017-11-16T06:15:29.764Z,77.80
2017-11-16T06:18:02.214Z,77.80
2017-11-16T06:20:35.508Z,78.10
2017-11-16T06:23:08.426Z,78.50
2017-11-16T06:25:40.941Z,78.20
2017-11-16T06:28:14.300Z,78.90
2017-11-16T06:30:47.028Z,78.30
2017-11-16T06:33:19.711Z,78.40
2017-11-16T06:35:52.380Z,78.50
2017-11-16T06:38:25.606Z,78.40
2017-11-16T06:40:58.758Z,78.40
2017-11-16T06:43:31.417Z,78.50
2017-11-16T06:46:04.592Z,78.30
2017-11-16T06:48:37.327Z,78.90
2017-11-16T06:51:10.784Z,78.90
2017-11-16T06:53:44.055Z,79.00
2017-11-16T06:56:16.698Z,78.90
2017-11-16T06:58:50.796Z,79.00
2017-11-16T07:01:23.765Z,79.00
2017-11-16T07:03:56.176Z,78.80
2017-11-16T07:06:30.330Z,78.80
2017-11-16T07:09:03.010Z,79.00
2017-11-16T07:11:36.200Z,78.80
2017-11-16T07:14:08.695Z,78.60
2017-11-16T07:16:42.070Z,78.30
2017-11-16T07:19:14.529Z,78.30
2017-11-16T07:21:47.778Z,78.50
2017-11-16T07:24:20.213Z,78.40
2017-11-16T07:26:52.836Z,78.60
2017-11-16T07:29:26.135Z,78.50
2017-11-16T07:31:58.581Z,78.40
2017-11-16T07:34:30.986Z,78.20
2017-11-16T07:37:03.578Z,78.30
2017-11-16T07:39:36.074Z,77.70
2017-11-16T07:42:08.956Z,77.90
2017-11-16T07:44:41.465Z,78.20
2017-11-16T07:47:14.271Z,78.60
2017-11-16T07:49:47.647Z,78.50
2017-11-16T07:52:21.135Z,78.10
2017-11-16T07:54:53.739Z,78.00
2017-11-16T07:57:26.512Z,78.20
2017-11-16T07:59:58.973Z,78.30
2017-11-16T08:02:32.334Z,78.60
2017-11-16T08:05:05.595Z,77.80
2017-11-16T08:07:38.674Z,77.90
2017-11-16T08:10:11.927Z,78.00
2017-11-16T08:12:46.057Z,78.20
2017-11-16T08:15:19.545Z,77.80
2017-11-16T08:17:52.962Z,77.70
2017-11-16T08:20:25.609Z,77.70
2017-11-16T08:22:57.970Z,77.40
2017-11-16T08:25:31.303Z,77.40
2017-11-16T08:28:03.960Z,77.40
2017-11-16T08:30:37.218Z,77.60
2017-11-16T08:33:09.870Z,77.80
2017-11-16T08:35:43.116Z,78.10
2017-11-16T08:38:16.553Z,77.90
2017-11-16T08:40:49.076Z,77.60
2017-11-16T08:43:22.494Z,77.80
2017-11-16T08:45:55.077Z,77.70
2017-11-16T08:48:27.632Z,77.40
2017-11-16T08:51:07.262Z,77.40
2017-11-16T08:53:40.158Z,77.40
2017-11-16T08:56:13.137Z,77.30
2017-11-16T08:58:45.723Z,77.20
2017-11-16T09:01:18.597Z,76.60
2017-11-16T09:03:51.373Z,77.30
2017-11-16T09:06:23.860Z,76.60
2017-11-16T09:08:56.403Z,76.40
2017-11-16T09:11:28.839Z,76.30
2017-11-16T09:14:02.167Z,76.30
2017-11-16T09:16:35.437Z,76.20
2017-11-16T09:19:09.599Z,76.30
2017-11-16T09:21:42.334Z,76.30
2017-11-16T09:24:15.741Z,76.50
2017-11-16T09:26:48.446Z,76.30
2017-11-16T09:29:21.036Z,76.60
2017-11-16T09:31:53.664Z,77.00
2017-11-16T09:34:27.787Z,76.60
2017-11-16T09:37:00.420Z,76.60
2017-11-16T09:39:32.960Z,76.60
2017-11-16T09:42:05.412Z,76.60
2017-11-16T09:44:38.747Z,76.80
2017-11-16T09:47:12.134Z,76.80
2017-11-16T09:49:44.910Z,76.50
2017-11-16T09:52:18.352Z,76.50
2017-11-16T09:54:51.554Z,76.30
2017-11-16T09:57:24.409Z,76.10
2017-11-16T09:59:58.010Z,76.10
2017-11-16T10:02:31.175Z,76.40
2017-11-16T10:05:05.209Z,76.50
2017-11-16T10:07:37.844Z,76.30
2017-11-16T10:10:10.311Z,76.20
2017-11-16T10:12:44.650Z,75.90
2017-11-16T10:15:17.106Z,75.60
2017-11-16T10:17:49.805Z,75.10
2017-11-16T10:20:22.319Z,75.50
2017-11-16T10:22:54.705Z,75.70
2017-11-16T10:25:27.445Z,75.80
2017-11-16T10:28:00.763Z,75.70
2017-11-16T10:30:33.317Z,75.60
2017-11-16T10:33:06.654Z,75.70
2017-11-16T10:35:40.125Z,76.30
2017-11-16T10:38:12.940Z,75.50
2017-11-16T10:40:45.339Z,75.40
2017-11-16T10:43:17.749Z,75.10
2017-11-16T10:45:50.335Z,75.30
2017-11-16T10:48:22.823Z,75.10
2017-11-16T10:50:55.209Z,75.40
2017-11-16T10:53:27.636Z,75.50
2017-11-16T10:56:00.038Z,75.00
2017-11-16T10:58:32.683Z,74.70
2017-11-16T11:01:06.087Z,74.60
2017-11-16T11:03:39.243Z,74.60
2017-11-16T11:06:12.067Z,74.70
2017-11-16T11:08:46.109Z,74.90
2017-11-16T11:11:19.675Z,74.70
2017-11-16T11:13:52.354Z,74.70
2017-11-16T11:16:24.859Z,74.20
2017-11-16T11:18:57.333Z,74.30
2017-11-16T11:21:29.956Z,74.60
2017-11-16T11:24:03.556Z,74.90
2017-11-16T11:26:36.435Z,74.80
2017-11-16T11:29:10.509Z,74.80
2017-11-16T11:31:44.127Z,74.70
2017-11-16T11:34:17.522Z,74.70
2017-11-16T11:36:50.510Z,74.70
2017-11-16T11:39:23.874Z,74.60
2017-11-16T11:41:57.204Z,74.60
2017-11-16T11:44:30.549Z,74.20
2017-11-16T11:47:03.530Z,74.10
2017-11-16T11:49:36.028Z,74.50
2017-11-16T11:52:08.513Z,74.10
2017-11-16T11:54:40.964Z,73.80
2017-11-16T11:57:13.567Z,73.90
2017-11-16T11:59:46.847Z,73.80
2017-11-16T12:02:19.659Z,73.80
2017-11-16T12:04:53.106Z,73.80
2017-11-16T12:07:26.352Z,73.60
2017-11-16T12:09:59.113Z,73.60
2017-11-16T12:12:32.315Z,73.80
2017-11-16T12:15:05.091Z,73.70
2017-11-16T12:17:37.523Z,73.90
2017-11-16T12:20:10.055Z,73.60
2017-11-16T12:22:42.732Z,73.90
2017-11-16T12:25:15.984Z,73.90
2017-11-16T12:27:49.707Z,73.00
2017-11-16T12:30:22.362Z,73.00
2017-11-16T12:32:55.154Z,73.20
2017-11-16T12:35:28.285Z,73.50
2017-11-16T12:38:00.776Z,73.20
2017-11-16T12:40:33.359Z,72.80
2017-11-16T12:43:06.729Z,73.00
2017-11-16T12:45:39.538Z,73.10
2017-11-16T12:48:12.765Z,74.10
2017-11-16T12:50:45.454Z,73.40
2017-11-16T12:53:18.043Z,73.50
2017-11-16T12:55:51.353Z,73.10
2017-11-16T12:58:24.749Z,73.10
2017-11-16T13:00:57.214Z,73.20
2017-11-16T13:03:29.941Z,73.10
2017-11-16T13:06:03.317Z,73.30
2017-11-16T13:08:36.728Z,73.10
2017-11-16T13:11:10.124Z,73.00
2017-11-16T13:13:42.689Z,72.90
2017-11-16T13:16:15.136Z,73.00
2017-11-16T13:18:47.738Z,73.10
2017-11-16T13:21:20.193Z,73.50
2017-11-16T13:23:52.605Z,73.60
2017-11-16T13:26:25.181Z,73.50
2017-11-16T13:28:57.693Z,73.60
2017-11-16T13:31:30.190Z,73.70
2017-11-16T13:34:02.902Z,73.70
2017-11-16T13:36:36.977Z,73.10
2017-11-16T13:39:09.965Z,73.10
2017-11-16T13:41:42.377Z,73.40
2017-11-16T13:44:15.161Z,73.70
2017-11-16T13:46:47.833Z,73.90
2017-11-16T13:49:20.313Z,74.00
2017-11-16T13:51:52.971Z,74.20
2017-11-16T13:54:26.372Z,74.30
2017-11-16T13:56:59.741Z,74.50
2017-11-16T13:59:32.227Z,74.60
2017-11-16T14:02:04.657Z,74.50
2017-11-16T14:04:37.133Z,74.10
2017-11-16T14:07:10.518Z,74.40
2017-11-16T14:09:44.054Z,74.60
2017-11-16T14:12:17.417Z,74.60
2017-11-16T14:14:50.446Z,74.60
2017-11-16T14:17:24.574Z,74.60
2017-11-16T14:19:57.252Z,74.60
2017-11-16T14:22:30.599Z,74.60
2017-11-16T14:25:03.326Z,74.60
2017-11-16T14:27:35.922Z,74.30
2017-11-16T14:30:09.151Z,74.50
2017-11-16T14:32:42.517Z,74.70
2017-11-16T14:35:15.257Z,74.60
2017-11-16T14:37:47.678Z,74.90
2017-11-16T14:40:20.226Z,74.80
2017-11-16T14:42:52.653Z,75.10
2017-11-16T14:45:26.185Z,74.80
2017-11-16T14:47:59.825Z,74.70
2017-11-16T14:50:32.681Z,74.70
2017-11-16T14:53:05.145Z,75.00
2017-11-16T14:55:38.623Z,74.30
2017-11-16T14:58:11.177Z,74.30
2017-11-16T15:00:44.082Z,74.10
2017-11-16T15:03:17.377Z,74.80
2017-11-16T15:05:50.738Z,74.80
2017-11-16T15:08:24.118Z,75.60
2017-11-16T15:10:57.649Z,74.80
2017-11-16T15:13:30.419Z,74.80
2017-11-16T15:16:02.877Z,74.80
2017-11-16T15:18:36.257Z,74.90
2017-11-16T15:21:09.077Z,74.80
2017-11-16T15:23:42.438Z,74.50
2017-11-16T15:26:14.850Z,74.10
2017-11-16T15:28:48.293Z,74.40
2017-11-16T15:31:20.738Z,74.80
2017-11-16T15:33:53.221Z,75.00
2017-11-16T15:36:25.971Z,75.10
2017-11-16T15:38:59.941Z,75.10
2017-11-16T15:41:32.608Z,75.10
2017-11-16T15:44:04.980Z,75.30
2017-11-16T15:46:37.560Z,75.40
2017-11-16T15:49:10.788Z,75.30
2017-11-16T15:51:43.591Z,75.30
2017-11-16T15:54:16.864Z,75.40
2017-11-16T15:56:49.518Z,75.40
2017-11-16T15:59:21.886Z,75.40
2017-11-16T16:01:54.538Z,75.30
2017-11-16T16:04:27.919Z,75.30
2017-11-16T16:07:00.449Z,75.70
2017-11-16T16:09:33.565Z,75.50
2017-11-16T16:12:06.746Z,75.50
2017-11-16T16:14:39.494Z,75.50
2017-11-16T16:17:12.081Z,75.60
2017-11-16T16:19:44.568Z,75.70
2017-11-16T16:22:17.761Z,75.80
2017-11-16T16:24:50.503Z,75.80
2017-11-16T16:27:23.029Z,76.00
2017-11-16T16:29:55.587Z,76.00
2017-11-16T16:32:28.928Z,76.10
2017-11-16T16:35:02.314Z,76.10
2017-11-16T16:37:35.177Z,76.00
2017-11-16T16:40:08.460Z,75.70
2017-11-16T16:42:41.387Z,75.70
2017-11-16T16:45:15.312Z,75.70
2017-11-16T16:47:49.225Z,75.70
2017-11-16T16:50:21.706Z,75.80
2017-11-16T16:52:54.274Z,76.00
2017-11-16T16:55:26.734Z,76.00
2017-11-16T16:57:59.285Z,76.00
2017-11-16T17:00:32.470Z,75.60
2017-11-16T17:03:05.204Z,75.70
2017-11-16T17:05:37.673Z,75.80
2017-11-16T17:08:12.160Z,75.80
2017-11-16T17:10:45.519Z,76.30
2017-11-16T17:13:18.336Z,76.90
2017-11-16T17:15:51.602Z,76.20
2017-11-16T17:18:24.129Z,75.90
2017-11-16T17:20:57.564Z,76.00
2017-11-16T17:23:30.257Z,76.10
2017-11-16T17:26:03.743Z,75.50
2017-11-16T17:28:36.621Z,75.60
2017-11-16T17:31:10.016Z,75.50
2017-11-16T17:33:43.467Z,75.10
2017-11-16T17:36:16.959Z,75.00
2017-11-16T17:38:49.401Z,74.50
2017-11-16T17:41:21.871Z,74.40
2017-11-16T17:43:55.251Z,74.30
2017-11-16T17:46:27.723Z,74.50
2017-11-16T17:49:00.232Z,74.90
2017-11-16T17:51:33.466Z,74.80
2017-11-16T17:54:06.160Z,74.70
2017-11-16T17:56:38.691Z,74.80
2017-11-16T17:59:11.244Z,74.70
2017-11-16T18:01:44.540Z,74.60
2017-11-16T18:04:17.990Z,74.70
2017-11-16T18:06:51.389Z,74.80
2017-11-16T18:09:24.830Z,74.60
2017-11-16T18:11:57.282Z,74.40
2017-11-16T18:14:29.923Z,74.30
2017-11-16T18:17:03.430Z,74.40
2017-11-16T18:19:35.879Z,74.50
2017-11-16T18:22:09.249Z,74.80
2017-11-16T18:24:42.636Z,74.80
2017-11-16T18:27:16.233Z,74.80
2017-11-16T18:29:49.301Z,74.80
2017-11-16T18:32:22.542Z,74.70
2017-11-16T18:34:55.899Z,74.70
2017-11-16T18:37:28.887Z,74.70
2017-11-16T18:40:01.375Z,74.70
2017-11-16T18:42:34.254Z,74.60
2017-11-16T18:45:07.349Z,74.50
2017-11-16T18:47:40.895Z,74.60
2017-11-16T18:50:14.459Z,74.20
2017-11-16T18:52:48.670Z,74.00
2017-11-16T18:55:22.281Z,74.00
2017-11-16T18:57:55.489Z,74.10
2017-11-16T19:00:29.135Z,74.00
2017-11-16T19:03:03.066Z,73.80
2017-11-16T19:05:38.403Z,74.00
2017-11-16T19:08:13.952Z,74.10
2017-11-16T19:10:49.267Z,74.40
2017-11-16T19:13:25.442Z,74.20
2017-11-16T19:16:01.234Z,74.10
2017-11-16T19:18:36.476Z,74.30
2017-11-16T19:21:12.688Z,74.30
2017-11-16T19:23:47.641Z,74.50
2017-11-16T19:26:23.486Z,74.60
2017-11-16T19:28:58.739Z,74.20
2017-11-16T19:31:34.472Z,74.20
2017-11-16T19:34:10.629Z,74.20
2017-11-16T19:36:46.787Z,74.00
2017-11-16T19:39:22.606Z,74.10
2017-11-16T19:41:58.443Z,74.20
2017-11-16T19:44:34.774Z,74.30
2017-11-16T19:47:10.568Z,74.40
2017-11-16T19:49:46.079Z,74.30
2017-11-16T19:52:21.805Z,74.50
2017-11-16T19:54:57.087Z,74.50
2017-11-16T19:57:32.517Z,75.20
2017-11-16T20:00:08.012Z,74.50
2017-11-16T20:02:43.399Z,74.60
2017-11-16T20:05:18.622Z,74.50
2017-11-16T20:07:54.329Z,74.20
2017-11-16T20:10:29.458Z,74.20
2017-11-16T20:13:05.646Z,74.30
2017-11-16T20:15:41.376Z,74.50
2017-11-16T20:18:16.889Z,74.60
2017-11-16T20:20:52.225Z,74.40
2017-11-16T20:23:27.653Z,74.40
2017-11-16T20:26:04.000Z,74.40
2017-11-16T20:28:39.728Z,74.40
2017-11-16T20:31:15.022Z,74.50
2017-11-16T20:33:51.950Z,74.40
2017-11-16T20:36:27.422Z,74.70
2017-11-16T20:39:07.767Z,74.10
2017-11-16T20:44:54.118Z,74.90
2017-11-16T20:47:31.909Z,74.70
2017-11-16T20:50:13.324Z,74.90
2017-11-16T20:53:02.995Z,75.40
2017-11-16T20:55:38.084Z,74.90
2017-11-16T20:58:14.170Z,74.90
2017-11-16T21:00:48.384Z,74.40
2017-11-16T21:03:24.636Z,74.40
2017-11-16T21:06:01.531Z,74.20
2017-11-16T21:08:37.022Z,74.20
2017-11-16T21:11:12.472Z,74.30
2017-11-16T21:13:47.774Z,75.30
2017-11-16T21:16:24.005Z,74.50
2017-11-16T21:18:59.959Z,74.20
2017-11-16T21:21:36.131Z,74.50
2017-11-16T21:24:12.064Z,74.40
2017-11-16T21:26:48.380Z,74.10
2017-11-16T21:29:24.645Z,74.70
2017-11-16T21:31:59.518Z,74.70
2017-11-16T21:34:35.321Z,74.50
2017-11-16T21:37:09.844Z,73.80
2017-11-16T21:39:42.943Z,74.50
2017-11-16T21:42:16.915Z,73.90
2017-11-16T21:44:49.629Z,73.90
2017-11-16T21:47:22.456Z,74.50
2017-11-16T21:49:55.818Z,75.20
2017-11-16T21:52:29.352Z,74.30
2017-11-16T21:55:03.499Z,74.50
2017-11-16T21:57:36.333Z,74.50
2017-11-16T22:00:09.217Z,73.80
2017-11-16T22:02:42.706Z,73.70
2017-11-16T22:05:16.162Z,73.80
2017-11-16T22:07:49.378Z,73.90
2017-11-16T22:10:22.174Z,73.80
2017-11-16T22:12:55.760Z,73.70
2017-11-16T22:15:29.186Z,73.80
2017-11-16T22:18:01.691Z,73.80
2017-11-16T22:20:34.338Z,74.10
2017-11-16T22:23:06.858Z,73.80
2017-11-16T22:25:40.314Z,73.80
2017-11-16T22:28:13.710Z,73.70
2017-11-16T22:30:46.440Z,73.60
2017-11-16T22:33:19.093Z,73.90
2017-11-16T22:35:51.575Z,74.00
2017-11-16T22:38:24.934Z,74.10
2017-11-16T22:40:58.981Z,73.80
2017-11-16T22:43:31.958Z,73.80
2017-11-16T22:46:04.973Z,74.00
2017-11-16T22:48:37.576Z,74.00
2017-11-16T22:51:10.839Z,74.40
2017-11-16T22:53:43.433Z,74.40
2017-11-16T22:56:16.626Z,74.40
2017-11-16T22:58:49.327Z,74.40
2017-11-16T23:01:21.923Z,74.10
2017-11-16T23:03:54.537Z,74.10
2017-11-16T23:06:27.925Z,74.30
2017-11-16T23:09:01.467Z,74.10
2017-11-16T23:11:34.155Z,74.40
2017-11-16T23:14:06.678Z,74.10
2017-11-16T23:16:40.236Z,73.90
2017-11-16T23:19:12.716Z,74.10
2017-11-16T23:21:45.269Z,74.30
2017-11-16T23:24:17.741Z,73.90
2017-11-16T23:26:50.436Z,73.90
2017-11-16T23:29:23.870Z,73.90
2017-11-16T23:31:56.312Z,74.00
2017-11-16T23:34:29.726Z,73.60
2017-11-16T23:37:03.231Z,73.70
2017-11-16T23:39:35.687Z,73.60
2017-11-16T23:42:08.238Z,73.80
2017-11-16T23:44:40.906Z,73.80
2017-11-16T23:47:14.298Z,74.00
2017-11-16T23:49:47.113Z,74.10
2017-11-16T23:52:20.390Z,74.30
2017-11-16T23:54:53.947Z,74.10
2017-11-16T23:57:26.523Z,74.10
